Time;durP1;ratioP1;P1;durP2;ratioP2;P2;SDS_P1;SDS_P2;PMS_P1;PMS_P2;Temp;Humidity;BMP_temperature;BMP_pressure;BME280_temperature;BME280_humidity;BME280_pressure;Samples;Min_cycle;Max_cycle;Signal;HPM_P1;HPM_P2
2023/08/14 00:01:04;;;;;;;5.67;2.70;;;24.30;83.90;;;;;;5044161;28;20206;-60
2023/08/14 00:03:31;;;;;;;5.27;2.57;;;24.30;83.90;;;;;;5047098;28;20218;-60
2023/08/14 00:05:58;;;;;;;4.87;2.90;;;24.30;84.00;;;;;;5044497;28;20514;-60
2023/08/14 00:08:26;;;;;;;4.47;2.70;;;24.30;84.20;;;;;;5045062;28;20678;-60
2023/08/14 00:10:54;;;;;;;7.87;3.00;;;24.30;84.30;;;;;;5041138;28;20205;-60
2023/08/14 00:13:21;;;;;;;10.23;3.07;;;24.30;84.30;;;;;;5044190;28;20199;-60
2023/08/14 00:15:50;;;;;;;3.23;2.80;;;24.20;84.30;;;;;;5044960;28;20301;-60
2023/08/14 00:18:17;;;;;;;9.57;3.50;;;24.20;84.50;;;;;;5041284;28;20215;-60
2023/08/14 00:20:45;;;;;;;5.83;2.87;;;24.20;84.50;;;;;;5040355;28;20636;-60
2023/08/14 00:23:12;;;;;;;4.17;2.83;;;24.20;84.70;;;;;;5046676;28;20196;-60
2023/08/14 00:25:39;;;;;;;5.40;3.07;;;24.10;84.80;;;;;;5043370;28;20206;-59
2023/08/14 00:28:06;;;;;;;6.10;3.33;;;24.10;85.00;;;;;;5042399;28;20191;-60
2023/08/14 00:30:33;;;;;;;5.67;3.03;;;24.10;84.90;;;;;;5046376;28;20222;-60
2023/08/14 00:33:01;;;;;;;4.80;3.23;;;24.10;84.80;;;;;;5042704;28;20238;-60
2023/08/14 00:35:28;;;;;;;3.60;3.27;;;24.10;85.00;;;;;;5040419;28;20555;-60
2023/08/14 00:37:55;;;;;;;4.17;3.70;;;24.00;85.10;;;;;;5047459;28;20207;-60
2023/08/14 00:40:22;;;;;;;3.17;2.90;;;23.90;85.00;;;;;;5045249;28;20640;-60
2023/08/14 00:42:49;;;;;;;3.57;3.20;;;23.80;85.20;;;;;;5043211;28;20514;-59
2023/08/14 00:45:16;;;;;;;7.23;3.83;;;23.80;85.60;;;;;;5043113;28;20211;-59
2023/08/14 00:47:46;;;;;;;3.93;3.20;;;23.70;86.00;;;;;;5044901;28;20210;-60
2023/08/14 00:50:14;;;;;;;3.10;2.90;;;23.60;86.50;;;;;;5040547;28;20206;-60
2023/08/14 00:52:44;;;;;;;4.90;3.10;;;23.60;86.80;;;;;;5045144;28;20222;-60
2023/08/14 00:55:15;;;;;;;4.60;3.10;;;23.60;87.10;;;;;;5043162;28;20233;-59
2023/08/14 00:57:43;;;;;;;3.87;2.80;;;23.60;87.30;;;;;;5041606;28;20209;-60
2023/08/14 01:00:12;;;;;;;4.50;3.67;;;23.60;87.40;;;;;;5045073;28;20192;-60
2023/08/14 01:02:41;;;;;;;4.07;3.63;;;23.60;87.50;;;;;;5048783;28;20232;-60
2023/08/14 01:05:08;;;;;;;5.07;3.73;;;23.60;87.60;;;;;;5044207;28;20652;-60
2023/08/14 01:07:35;;;;;;;5.83;3.43;;;23.60;87.50;;;;;;5045196;28;20214;-60
2023/08/14 01:10:03;;;;;;;7.63;3.53;;;23.50;87.30;;;;;;5043589;28;20194;-60
2023/08/14 01:12:48;;;;;;;5.73;3.57;;;23.50;87.20;;;;;;5042400;28;20634;-60
2023/08/14 01:15:24;;;;;;;4.23;3.93;;;23.50;87.30;;;;;;5043144;28;20214;-60
2023/08/14 01:17:57;;;;;;;4.50;2.93;;;23.50;87.40;;;;;;5044471;28;20203;-60
2023/08/14 01:20:27;;;;;;;5.17;3.60;;;23.50;87.60;;;;;;5042838;28;20620;-60
2023/08/14 01:22:57;;;;;;;3.83;3.30;;;23.50;87.80;;;;;;5047913;28;20195;-60
2023/08/14 01:25:37;;;;;;;4.40;3.70;;;23.40;87.90;;;;;;5043867;28;20210;-60
2023/08/14 01:28:05;;;;;;;3.60;3.30;;;23.40;88.10;;;;;;5049782;28;20273;-61
2023/08/14 01:30:32;;;;;;;3.63;3.33;;;23.40;88.10;;;;;;5046556;28;20213;-60
2023/08/14 01:33:00;;;;;;;4.07;3.67;;;23.30;88.20;;;;;;5043184;28;20194;-60
2023/08/14 01:35:34;;;;;;;4.30;3.90;;;23.30;88.80;;;;;;5042590;28;20309;-60
2023/08/14 01:38:37;;;;;;;6.93;4.30;;;23.20;89.40;;;;;;5042506;28;20210;-60
2023/08/14 01:41:28;;;;;;;7.67;4.13;;;23.20;90.00;;;;;;5041950;28;20210;-60
2023/08/14 01:43:59;;;;;;;5.43;4.33;;;23.10;90.10;;;;;;5049084;28;20223;-60
2023/08/14 01:46:27;;;;;;;5.93;4.37;;;23.10;90.00;;;;;;5041535;28;20198;-60
2023/08/14 01:48:57;;;;;;;4.80;4.30;;;23.10;90.00;;;;;;5040950;28;20214;-61
2023/08/14 01:51:26;;;;;;;5.10;4.60;;;23.00;90.00;;;;;;5044395;28;20293;-59
2023/08/14 01:53:53;;;;;;;7.33;3.97;;;23.00;90.00;;;;;;5042454;28;20211;-60
2023/08/14 01:56:21;;;;;;;6.73;4.27;;;23.00;90.00;;;;;;5041946;28;20225;-60
2023/08/14 01:58:48;;;;;;;4.43;4.03;;;23.00;90.00;;;;;;5044728;28;20203;-60
2023/08/14 02:01:15;;;;;;;10.73;3.97;;;23.00;90.30;;;;;;5044456;28;20743;-60
2023/08/14 02:03:42;;;;;;;4.10;3.70;;;22.90;90.00;;;;;;5042977;28;20290;-60
2023/08/14 02:06:09;;;;;;;7.73;3.83;;;22.90;90.10;;;;;;5041959;28;20655;-60
2023/08/14 02:08:37;;;;;;;4.37;3.97;;;22.90;90.20;;;;;;5041227;28;20203;-60
2023/08/14 02:11:08;;;;;;;4.40;3.70;;;22.80;90.20;;;;;;5048352;28;20668;-60
2023/08/14 02:13:37;;;;;;;6.80;3.87;;;22.80;90.30;;;;;;5038224;28;20215;-60
2023/08/14 02:16:04;;;;;;;6.13;4.70;;;22.80;90.30;;;;;;5034699;28;20241;-60
2023/08/14 02:18:31;;;;;;;5.50;4.13;;;22.80;90.30;;;;;;5039755;28;20213;-60
2023/08/14 02:20:58;;;;;;;6.87;3.70;;;22.80;90.20;;;;;;5034516;28;20210;-60
2023/08/14 02:23:25;;;;;;;4.67;4.27;;;22.80;90.10;;;;;;5039337;28;20203;-60
2023/08/14 02:25:55;;;;;;;5.47;4.97;;;22.70;90.10;;;;;;5035251;28;20296;-60
2023/08/14 02:28:22;;;;;;;5.30;4.77;;;22.70;90.10;;;;;;5047113;28;20207;-60
2023/08/14 02:30:49;;;;;;;5.23;3.90;;;22.70;90.30;;;;;;5038777;28;20536;-60
2023/08/14 02:33:17;;;;;;;5.40;4.13;;;22.70;90.30;;;;;;5040104;28;20213;-60
2023/08/14 02:35:44;;;;;;;4.47;4.07;;;22.60;90.40;;;;;;5039943;28;20213;-60
2023/08/14 02:38:14;;;;;;;5.77;4.47;;;22.60;90.50;;;;;;5040155;28;20238;-60
2023/08/14 02:40:43;;;;;;;6.00;4.80;;;22.60;90.50;;;;;;5043334;28;20644;-60
2023/08/14 02:43:10;;;;;;;4.77;3.83;;;22.60;90.60;;;;;;5038430;28;20192;-60
2023/08/14 02:45:37;;;;;;;7.13;5.10;;;22.60;90.70;;;;;;5043645;28;20242;-60
2023/08/14 02:48:04;;;;;;;4.23;3.90;;;22.60;90.70;;;;;;5039978;28;20290;-60
2023/08/14 02:50:32;;;;;;;9.20;4.87;;;22.50;90.80;;;;;;5040192;28;20310;-60
2023/08/14 02:52:59;;;;;;;7.40;5.20;;;22.50;90.80;;;;;;5042405;28;20523;-60
2023/08/14 02:55:26;;;;;;;7.07;6.27;;;22.50;90.80;;;;;;5041354;28;20218;-60
2023/08/14 02:57:53;;;;;;;8.03;6.80;;;22.50;90.80;;;;;;5040845;28;20224;-60
2023/08/14 03:00:20;;;;;;;12.37;7.90;;;22.50;90.90;;;;;;5046301;28;20198;-60
2023/08/14 03:02:47;;;;;;;7.20;6.60;;;22.50;91.00;;;;;;5042398;28;20274;-60
2023/08/14 03:05:16;;;;;;;8.40;6.20;;;22.50;91.20;;;;;;5050848;28;20244;-60
2023/08/14 03:07:43;;;;;;;8.60;5.50;;;22.50;91.20;;;;;;5040367;28;20626;-60
2023/08/14 03:10:10;;;;;;;6.50;5.87;;;22.50;91.10;;;;;;5042917;28;20659;-60
2023/08/14 03:12:37;;;;;;;7.17;6.43;;;22.50;91.10;;;;;;5042138;28;20207;-60
2023/08/14 03:15:05;;;;;;;8.27;7.50;;;22.50;91.20;;;;;;5040310;28;20318;-60
2023/08/14 03:17:33;;;;;;;7.93;7.23;;;22.50;91.30;;;;;;5041757;28;20233;-59
2023/08/14 03:20:00;;;;;;;7.33;6.53;;;22.50;91.40;;;;;;5041175;28;20194;-60
2023/08/14 03:22:27;;;;;;;7.97;7.07;;;22.50;91.30;;;;;;5039675;28;20213;-60
2023/08/14 03:24:54;;;;;;;10.73;5.97;;;22.60;91.30;;;;;;5038042;28;20199;-60
2023/08/14 03:27:21;;;;;;;8.10;5.80;;;22.50;91.20;;;;;;5042961;28;20637;-60
2023/08/14 03:29:48;;;;;;;7.63;6.07;;;22.50;91.20;;;;;;5042834;28;20207;-60
2023/08/14 03:32:15;;;;;;;6.47;5.30;;;22.50;91.20;;;;;;5041662;28;20609;-61
2023/08/14 03:34:44;;;;;;;6.63;4.90;;;22.50;91.20;;;;;;5041631;28;20206;-60
2023/08/14 03:37:11;;;;;;;6.17;5.50;;;22.50;91.20;;;;;;5039618;28;20302;-60
2023/08/14 03:39:39;;;;;;;5.33;4.70;;;22.50;91.20;;;;;;5042279;28;20561;-60
2023/08/14 03:42:07;;;;;;;12.67;5.97;;;22.40;91.20;;;;;;5039241;28;20200;-60
2023/08/14 03:44:34;;;;;;;6.50;5.90;;;22.40;91.10;;;;;;5046152;28;20222;-60
2023/08/14 03:47:01;;;;;;;8.17;6.30;;;22.30;91.10;;;;;;5044135;28;20230;-60
2023/08/14 03:49:29;;;;;;;7.30;6.47;;;22.30;91.30;;;;;;5049585;28;20630;-60
2023/08/14 03:51:56;;;;;;;6.40;5.60;;;22.20;91.40;;;;;;5046726;28;20206;-60
2023/08/14 03:54:23;;;;;;;9.43;6.40;;;22.20;91.60;;;;;;5043311;28;20219;-60
2023/08/14 03:56:50;;;;;;;7.20;5.30;;;22.20;91.80;;;;;;5038372;28;20307;-60
2023/08/14 03:59:17;;;;;;;6.00;5.50;;;22.20;91.80;;;;;;5046167;28;20253;-60
2023/08/14 04:01:44;;;;;;;7.13;5.50;;;22.20;91.80;;;;;;5043246;28;20217;-60
2023/08/14 04:04:11;;;;;;;6.63;6.00;;;22.20;91.70;;;;;;5045712;28;20239;-60
2023/08/14 04:06:38;;;;;;;6.83;6.20;;;22.20;91.60;;;;;;5047945;28;20290;-60
2023/08/14 04:09:05;;;;;;;7.20;6.50;;;22.20;91.60;;;;;;5042346;28;20277;-60
2023/08/14 04:11:32;;;;;;;9.87;6.53;;;22.20;91.60;;;;;;5047090;28;20210;-60
2023/08/14 04:14:00;;;;;;;7.47;6.63;;;22.10;91.60;;;;;;5043248;28;20206;-60
2023/08/14 04:16:41;;;;;;;7.43;6.80;;;22.10;91.70;;;;;;5046214;28;20257;-60
2023/08/14 04:19:12;;;;;;;7.27;6.57;;;22.10;91.80;;;;;;5051852;28;20231;-60
2023/08/14 04:21:40;;;;;;;9.00;8.20;;;22.10;91.80;;;;;;5044996;28;20190;-60
2023/08/14 04:24:08;;;;;;;9.37;7.60;;;22.10;91.90;;;;;;5043575;28;20191;-60
2023/08/14 04:26:36;;;;;;;8.27;7.43;;;22.10;91.90;;;;;;5043533;28;20505;-60
2023/08/14 04:29:08;;;;;;;8.40;7.47;;;22.00;91.90;;;;;;5044915;28;20551;-60
2023/08/14 04:31:40;;;;;;;8.80;6.93;;;22.00;92.00;;;;;;5046405;28;20211;-60
2023/08/14 04:34:09;;;;;;;7.40;6.80;;;22.00;92.00;;;;;;5047453;28;20207;-60
2023/08/14 04:36:38;;;;;;;8.87;7.40;;;22.00;92.00;;;;;;5044723;28;20233;-60
2023/08/14 04:39:07;;;;;;;10.43;7.17;;;22.00;92.00;;;;;;5053608;28;20195;-60
2023/08/14 04:41:36;;;;;;;7.97;7.03;;;22.00;92.10;;;;;;5042201;28;20211;-60
2023/08/14 04:44:03;;;;;;;7.47;6.63;;;22.00;92.10;;;;;;5051471;28;20248;-60
2023/08/14 04:46:37;;;;;;;7.13;6.00;;;22.00;92.20;;;;;;5044948;28;20211;-60
2023/08/14 04:49:20;;;;;;;9.13;5.53;;;22.00;92.30;;;;;;5045464;28;20196;-60
2023/08/14 04:51:47;;;;;;;11.87;7.37;;;22.00;92.40;;;;;;5042154;28;20207;-61
2023/08/14 04:54:14;;;;;;;7.90;7.00;;;22.10;92.50;;;;;;5042096;28;20695;-60
2023/08/14 04:56:41;;;;;;;8.33;6.37;;;22.20;92.50;;;;;;5045931;28;20297;-60
2023/08/14 04:59:08;;;;;;;9.40;6.53;;;22.20;92.50;;;;;;5046986;28;20238;-60
2023/08/14 05:01:35;;;;;;;6.80;6.10;;;22.20;92.50;;;;;;5041140;28;20208;-60
2023/08/14 05:04:03;;;;;;;8.30;7.03;;;22.30;92.60;;;;;;5046087;28;20307;-60
2023/08/14 05:06:30;;;;;;;8.00;7.20;;;22.30;92.60;;;;;;5038134;28;20207;-60
2023/08/14 05:08:58;;;;;;;7.70;7.00;;;22.40;92.60;;;;;;5042569;28;20222;-60
2023/08/14 05:11:30;;;;;;;7.80;7.07;;;22.50;92.60;;;;;;5043985;28;20523;-60
2023/08/14 05:13:57;;;;;;;11.00;7.07;;;22.50;92.70;;;;;;5041775;28;20270;-60
2023/08/14 05:16:25;;;;;;;7.37;6.50;;;22.50;92.60;;;;;;5038304;28;20242;-60
2023/08/14 05:18:52;;;;;;;7.10;6.50;;;22.60;92.60;;;;;;5035628;28;20231;-60
2023/08/14 05:21:20;;;;;;;9.87;7.13;;;22.70;92.60;;;;;;5046469;28;20203;-60
2023/08/14 05:23:46;;;;;;;8.50;7.57;;;22.80;92.60;;;;;;5044863;28;20209;-61
2023/08/14 05:26:14;;;;;;;7.40;6.80;;;22.80;92.40;;;;;;5043779;28;20218;-60
2023/08/14 05:28:41;;;;;;;9.80;7.33;;;22.90;92.30;;;;;;5041221;28;20671;-61
2023/08/14 05:31:08;;;;;;;8.03;7.23;;;22.90;92.30;;;;;;5043259;28;20646;-60
2023/08/14 05:33:35;;;;;;;9.30;8.10;;;23.00;92.40;;;;;;5044888;28;20238;-60
2023/08/14 05:36:02;;;;;;;8.13;7.00;;;23.10;92.40;;;;;;5040582;28;20682;-60
2023/08/14 05:38:29;;;;;;;8.00;7.30;;;23.10;92.50;;;;;;5042797;28;20297;-60
2023/08/14 05:40:56;;;;;;;6.97;6.27;;;23.20;92.50;;;;;;5039436;28;20217;-61
2023/08/14 05:43:23;;;;;;;7.57;5.50;;;23.30;92.50;;;;;;5042008;28;20234;-60
2023/08/14 05:45:50;;;;;;;9.73;8.83;;;23.40;92.50;;;;;;5040233;28;20206;-61
2023/08/14 05:48:17;;;;;;;8.80;7.90;;;23.50;92.50;;;;;;5037152;28;20210;-60
2023/08/14 05:50:44;;;;;;;9.00;7.40;;;23.60;92.40;;;;;;5044040;28;20281;-60
2023/08/14 05:53:11;;;;;;;8.93;7.27;;;23.70;92.40;;;;;;5041182;28;20214;-60
2023/08/14 05:55:41;;;;;;;8.33;7.53;;;23.80;92.40;;;;;;5038946;28;20217;-60
2023/08/14 05:58:08;;;;;;;8.97;7.83;;;24.00;92.30;;;;;;5035967;28;20200;-60
2023/08/14 06:00:36;;;;;;;8.53;7.77;;;24.20;92.20;;;;;;5040895;28;20233;-60
2023/08/14 06:03:04;;;;;;;9.37;8.07;;;24.40;92.00;;;;;;5045413;28;20200;-60
2023/08/14 06:05:32;;;;;;;7.23;6.63;;;24.50;91.80;;;;;;5037999;28;20307;-61
2023/08/14 06:08:01;;;;;;;10.23;7.43;;;24.70;91.50;;;;;;5042744;28;20199;-60
2023/08/14 06:10:28;;;;;;;10.47;8.93;;;24.90;91.50;;;;;;5044575;28;20206;-60
2023/08/14 06:12:55;;;;;;;9.30;8.27;;;25.00;91.30;;;;;;5041801;28;20209;-60
2023/08/14 06:15:24;;;;;;;8.47;7.57;;;25.10;91.10;;;;;;5043336;28;20665;-61
2023/08/14 06:17:52;;;;;;;9.63;8.60;;;25.30;91.10;;;;;;5042665;28;20220;-60
2023/08/14 06:20:20;;;;;;;10.90;8.33;;;25.40;90.80;;;;;;5041460;28;20245;-60
2023/08/14 06:22:47;;;;;;;11.87;8.87;;;25.50;90.30;;;;;;5042956;28;20192;-60
2023/08/14 06:25:16;;;;;;;11.00;7.67;;;25.60;89.80;;;;;;5044499;28;20199;-60
2023/08/14 06:27:43;;;;;;;7.90;7.20;;;25.60;89.80;;;;;;5039773;28;20291;-60
2023/08/14 06:30:11;;;;;;;13.37;7.77;;;25.60;90.00;;;;;;5040746;28;20206;-60
2023/08/14 06:32:39;;;;;;;8.53;6.27;;;25.70;90.00;;;;;;5046278;28;20191;-61
2023/08/14 06:35:06;;;;;;;12.37;7.70;;;25.80;90.10;;;;;;5044982;28;20615;-60
2023/08/14 06:37:34;;;;;;;8.07;7.23;;;26.00;90.00;;;;;;5037876;28;20223;-61
2023/08/14 06:40:01;;;;;;;10.60;6.97;;;26.10;89.20;;;;;;5041613;28;20214;-60
2023/08/14 06:42:28;;;;;;;8.53;6.30;;;26.30;88.90;;;;;;5035980;28;20199;-60
2023/08/14 06:44:55;;;;;;;12.10;5.60;;;26.50;88.70;;;;;;5039026;28;20221;-60
2023/08/14 06:47:22;;;;;;;9.50;5.47;;;26.70;88.40;;;;;;5038286;28;20218;-60
2023/08/14 06:49:49;;;;;;;6.57;5.90;;;26.90;87.30;;;;;;5043042;28;20547;-60
2023/08/14 06:52:17;;;;;;;5.53;5.03;;;27.10;86.60;;;;;;5036412;28;20534;-61
2023/08/14 06:54:44;;;;;;;6.03;5.40;;;27.30;85.90;;;;;;5039312;28;20230;-61
2023/08/14 06:57:11;;;;;;;5.93;5.43;;;27.50;85.00;;;;;;5034896;28;20215;-61
2023/08/14 06:59:38;;;;;;;5.97;4.70;;;27.70;83.70;;;;;;5037851;28;20274;-61
2023/08/14 07:02:06;;;;;;;9.43;5.40;;;27.90;83.30;;;;;;5044929;28;20639;-60
2023/08/14 07:04:33;;;;;;;6.53;5.70;;;28.00;82.10;;;;;;5039961;28;20229;-60
2023/08/14 07:07:00;;;;;;;5.43;4.57;;;28.20;81.70;;;;;;5038190;28;20199;-61
2023/08/14 07:09:27;;;;;;;5.93;4.57;;;28.40;81.40;;;;;;5045135;28;20206;-60
2023/08/14 07:11:54;;;;;;;6.43;4.23;;;28.60;79.80;;;;;;5043501;28;20229;-61
2023/08/14 07:14:21;;;;;;;11.30;4.70;;;28.70;79.30;;;;;;5040141;28;20600;-60
2023/08/14 07:16:48;;;;;;;5.53;3.63;;;28.90;78.00;;;;;;5041483;28;20219;-61
2023/08/14 07:19:17;;;;;;;4.10;3.70;;;28.90;76.90;;;;;;5042946;28;20282;-61
2023/08/14 07:21:45;;;;;;;7.07;4.20;;;29.10;76.40;;;;;;5043915;28;20225;-61
2023/08/14 07:24:12;;;;;;;4.93;3.40;;;29.30;75.30;;;;;;5046241;28;20194;-61
2023/08/14 07:26:40;;;;;;;3.20;2.93;;;29.40;74.70;;;;;;5045045;28;20292;-60
2023/08/14 07:29:08;;;;;;;3.70;3.40;;;29.50;73.00;;;;;;5045475;28;20206;-60
2023/08/14 07:31:35;;;;;;;3.77;2.80;;;29.70;70.10;;;;;;5043437;28;20211;-61
2023/08/14 07:34:02;;;;;;;2.97;2.67;;;29.60;70.10;;;;;;5046278;28;20210;-60
2023/08/14 07:36:29;;;;;;;6.70;2.50;;;29.60;68.70;;;;;;5044921;28;20236;-60
2023/08/14 07:38:56;;;;;;;2.53;2.33;;;29.60;69.50;;;;;;5043985;28;20719;-61
2023/08/14 07:41:23;;;;;;;4.23;2.60;;;29.80;68.90;;;;;;5044775;28;20199;-61
2023/08/14 07:43:50;;;;;;;2.60;2.20;;;29.80;67.70;;;;;;5045720;28;20540;-60
2023/08/14 07:46:18;;;;;;;3.27;2.80;;;29.80;68.00;;;;;;5041039;28;20237;-60
2023/08/14 07:48:45;;;;;;;3.70;2.07;;;29.90;66.30;;;;;;5045248;28;20211;-60
2023/08/14 07:51:12;;;;;;;3.10;2.17;;;29.90;65.70;;;;;;5042830;28;20231;-60
2023/08/14 07:53:39;;;;;;;3.20;2.10;;;30.00;64.90;;;;;;5043684;28;20623;-60
2023/08/14 07:56:06;;;;;;;2.93;2.33;;;29.90;64.60;;;;;;5042939;28;20231;-60
2023/08/14 07:58:33;;;;;;;4.77;1.93;;;30.00;65.40;;;;;;5049092;28;20199;-60
2023/08/14 08:01:00;;;;;;;2.77;2.23;;;30.10;63.90;;;;;;5041999;28;20516;-60
2023/08/14 08:03:28;;;;;;;5.00;2.30;;;30.20;64.20;;;;;;5045890;28;20203;-60
2023/08/14 08:05:55;;;;;;;2.77;2.10;;;30.40;63.70;;;;;;5044548;28;20218;-60
2023/08/14 08:08:22;;;;;;;4.40;2.20;;;30.50;63.50;;;;;;5037869;28;20191;-61
2023/08/14 08:10:49;;;;;;;9.07;2.20;;;30.70;64.00;;;;;;5046212;28;20191;-62
2023/08/14 08:13:16;;;;;;;2.30;2.10;;;30.90;63.80;;;;;;5042379;28;20208;-60
2023/08/14 08:15:43;;;;;;;2.50;2.23;;;31.00;63.30;;;;;;5044288;28;20261;-60
2023/08/14 08:18:10;;;;;;;3.33;2.30;;;31.10;64.00;;;;;;5043477;28;20211;-60
2023/08/14 08:20:37;;;;;;;2.80;2.10;;;31.30;62.10;;;;;;5036079;28;20282;-60
2023/08/14 08:23:04;;;;;;;2.63;2.10;;;31.30;62.10;;;;;;5044331;28;20199;-60
2023/08/14 08:25:31;;;;;;;2.77;2.57;;;31.20;62.40;;;;;;5040557;28;20203;-60
2023/08/14 08:27:58;;;;;;;4.63;2.20;;;31.30;62.70;;;;;;5041078;28;20198;-61
2023/08/14 08:30:25;;;;;;;2.53;2.33;;;31.30;62.70;;;;;;5048951;28;20209;-60
2023/08/14 08:32:52;;;;;;;6.67;2.20;;;31.40;62.60;;;;;;5042264;28;20199;-60
2023/08/14 08:35:28;;;;;;;6.20;2.30;;;31.50;62.60;;;;;;5041927;28;20205;-60
2023/08/14 08:37:55;;;;;;;2.50;1.93;;;31.70;62.50;;;;;;5044867;28;20214;-60
2023/08/14 08:40:23;;;;;;;2.60;2.40;;;31.80;62.10;;;;;;5040906;28;20194;-61
2023/08/14 08:42:51;;;;;;;4.73;2.10;;;32.00;62.40;;;;;;5040912;28;20200;-60
2023/08/14 08:45:20;;;;;;;4.57;2.10;;;32.20;61.70;;;;;;5045062;28;20194;-60
2023/08/14 08:47:50;;;;;;;2.73;2.00;;;32.30;59.00;;;;;;5044876;28;20216;-60
2023/08/14 08:50:17;;;;;;;3.40;2.20;;;32.40;57.80;;;;;;5041921;28;20207;-60
2023/08/14 08:52:44;;;;;;;4.30;2.07;;;32.50;58.40;;;;;;5045780;28;20198;-60
2023/08/14 08:55:12;;;;;;;6.63;2.57;;;32.60;59.10;;;;;;5044425;28;20256;-60
2023/08/14 08:57:43;;;;;;;4.70;2.40;;;32.80;59.00;;;;;;5046620;28;20219;-60
2023/08/14 09:00:10;;;;;;;2.47;2.27;;;32.90;56.80;;;;;;5044101;28;20255;-60
2023/08/14 09:02:38;;;;;;;2.33;2.13;;;32.90;55.40;;;;;;5043895;28;20211;-61
2023/08/14 09:05:06;;;;;;;4.93;2.37;;;32.90;56.50;;;;;;5043785;28;20226;-60
2023/08/14 09:07:33;;;;;;;5.87;2.13;;;33.00;56.30;;;;;;5040475;28;20206;-62
2023/08/14 09:10:00;;;;;;;4.63;2.20;;;33.00;56.20;;;;;;5037645;28;20232;-60
2023/08/14 09:12:29;;;;;;;7.83;2.30;;;33.10;55.70;;;;;;5048095;28;20218;-60
2023/08/14 09:15:04;;;;;;;3.87;2.40;;;33.10;54.80;;;;;;5043638;28;20648;-61
2023/08/14 09:17:32;;;;;;;4.17;2.40;;;33.20;54.60;;;;;;5042998;28;20218;-60
2023/08/14 09:19:59;;;;;;;2.77;2.23;;;33.20;53.40;;;;;;5044587;28;20211;-61
2023/08/14 09:22:31;;;;;;;7.00;2.10;;;33.30;54.10;;;;;;5043749;28;20282;-60
2023/08/14 09:25:00;;;;;;;2.37;2.13;;;33.30;52.80;;;;;;5041780;28;20278;-60
2023/08/14 09:27:27;;;;;;;2.10;1.90;;;33.30;53.20;;;;;;5044097;28;20643;-60
2023/08/14 09:29:55;;;;;;;2.10;1.90;;;33.40;52.80;;;;;;5043113;28;20560;-60
2023/08/14 09:32:25;;;;;;;2.00;1.60;;;33.50;52.70;;;;;;5039082;28;20582;-61
2023/08/14 09:35:00;;;;;;;2.30;2.00;;;33.60;51.80;;;;;;5045835;28;20200;-61
2023/08/14 09:37:28;;;;;;;2.60;1.70;;;33.70;51.30;;;;;;5039817;28;20215;-60
2023/08/14 09:40:16;;;;;;;3.70;2.00;;;33.80;51.50;;;;;;5041543;28;20203;-60
2023/08/14 09:42:48;;;;;;;5.00;1.90;;;34.00;51.50;;;;;;5038776;28;20227;-61
2023/08/14 09:45:16;;;;;;;4.50;2.03;;;34.10;52.00;;;;;;5037727;28;20209;-60
2023/08/14 09:47:45;;;;;;;3.87;1.90;;;34.30;50.70;;;;;;5035474;28;20200;-61
2023/08/14 09:50:19;;;;;;;4.43;2.00;;;34.40;50.30;;;;;;5038632;28;20234;-60
2023/08/14 09:52:47;;;;;;;1.90;1.67;;;34.60;49.90;;;;;;5040512;28;20229;-62
2023/08/14 09:55:14;;;;;;;4.43;1.73;;;34.60;47.00;;;;;;5039426;28;20308;-61
2023/08/14 09:57:41;;;;;;;2.53;1.67;;;34.60;45.80;;;;;;5039490;28;20211;-60
2023/08/14 10:00:12;;;;;;;2.03;1.77;;;34.60;45.20;;;;;;5043038;28;20545;-60
2023/08/14 10:02:44;;;;;;;2.00;1.60;;;34.60;44.30;;;;;;5036322;28;20210;-61
2023/08/14 10:05:12;;;;;;;2.42;1.90;;;34.50;45.80;;;;;;5042696;28;20223;-61
2023/08/14 10:07:40;;;;;;;3.77;1.43;;;34.50;46.20;;;;;;5035415;28;20291;-61
2023/08/14 10:10:08;;;;;;;2.13;1.63;;;34.50;46.10;;;;;;5040869;28;20238;-61
2023/08/14 10:12:49;;;;;;;2.47;1.93;;;34.60;46.30;;;;;;5040271;28;20285;-60
2023/08/14 10:15:23;;;;;;;2.27;1.93;;;34.80;47.40;;;;;;5039358;28;20214;-61
2023/08/14 10:17:58;;;;;;;3.33;1.75;;;34.80;46.90;;;;;;5039668;28;20707;-60
2023/08/14 10:20:30;;;;;;;1.70;1.60;;;34.80;46.90;;;;;;5038442;28;20213;-61
2023/08/14 10:22:58;;;;;;;4.65;2.35;;;34.80;46.70;;;;;;5044331;28;20206;-60
2023/08/14 10:25:25;;;;;;;3.78;2.05;;;34.80;47.30;;;;;;5039910;28;20692;-61
2023/08/14 10:27:53;;;;;;;6.88;1.73;;;35.00;47.20;;;;;;5041209;28;20202;-60
2023/08/14 10:30:24;;;;;;;4.10;2.00;;;35.10;47.00;;;;;;5044035;28;20203;-60
2023/08/14 10:32:52;;;;;;;5.68;1.75;;;35.30;47.50;;;;;;5041458;28;20203;-60
2023/08/14 10:35:20;;;;;;;5.80;1.85;;;35.50;47.60;;;;;;5042341;28;20191;-61
2023/08/14 10:37:49;;;;;;;3.05;1.85;;;35.60;47.40;;;;;;5041190;28;20227;-60
2023/08/14 10:40:34;;;;;;;2.35;2.05;;;35.80;45.90;;;;;;5043884;28;20627;-60
2023/08/14 10:43:01;;;;;;;2.20;1.77;;;35.80;45.60;;;;;;5040954;28;20644;-61
2023/08/14 10:45:28;;;;;;;2.08;1.88;;;35.70;45.70;;;;;;5041011;28;20191;-60
2023/08/14 10:48:00;;;;;;;4.20;2.53;;;35.80;45.80;;;;;;5041052;28;20214;-61
2023/08/14 10:50:30;;;;;;;2.10;1.90;;;35.80;45.70;;;;;;5043347;28;22077;-61
2023/08/14 10:52:58;;;;;;;4.65;2.47;;;35.80;45.20;;;;;;5038979;28;20207;-60
2023/08/14 10:55:36;;;;;;;2.03;1.92;;;35.90;45.60;;;;;;5043263;28;20206;-61
2023/08/14 10:58:28;;;;;;;3.65;2.17;;;35.90;45.20;;;;;;5042253;28;20218;-60
2023/08/14 11:00:58;;;;;;;2.67;2.28;;;35.80;45.50;;;;;;5038745;28;20191;-61
2023/08/14 11:03:26;;;;;;;3.30;1.90;;;35.90;45.20;;;;;;5040958;28;20187;-60
2023/08/14 11:05:53;;;;;;;2.75;2.25;;;35.80;45.20;;;;;;5040844;28;20571;-61
2023/08/14 11:08:21;;;;;;;2.85;2.50;;;35.90;45.40;;;;;;5038797;28;20206;-60
2023/08/14 11:10:49;;;;;;;2.20;2.03;;;35.90;45.00;;;;;;5042436;28;20606;-60
2023/08/14 11:13:16;;;;;;;3.50;2.38;;;35.90;45.40;;;;;;5038377;28;20268;-60
2023/08/14 11:15:44;;;;;;;2.60;2.20;;;36.00;45.20;;;;;;5039568;28;20715;-61
2023/08/14 11:18:11;;;;;;;2.85;2.10;;;36.10;45.70;;;;;;5038292;28;20236;-60
2023/08/14 11:20:42;;;;;;;2.38;2.17;;;36.10;45.00;;;;;;5042938;28;20628;-61
2023/08/14 11:23:10;;;;;;;3.03;2.35;;;36.00;44.70;;;;;;5036452;28;20203;-61
2023/08/14 11:25:38;;;;;;;2.97;2.23;;;36.00;44.20;;;;;;5038944;28;20294;-61
2023/08/14 11:28:05;;;;;;;4.18;2.45;;;35.80;44.20;;;;;;5040619;28;20610;-61
2023/08/14 11:30:35;;;;;;;2.85;2.30;;;35.70;44.60;;;;;;5036715;28;20218;-60
2023/08/14 11:33:05;;;;;;;4.13;2.35;;;35.50;45.90;;;;;;5039148;28;20326;-61
2023/08/14 11:35:32;;;;;;;2.53;2.33;;;35.60;46.10;;;;;;5046104;28;20214;-60
2023/08/14 11:38:00;;;;;;;3.63;2.53;;;35.70;45.80;;;;;;5039260;28;20211;-61
2023/08/14 11:40:27;;;;;;;2.88;2.38;;;35.80;44.80;;;;;;5041733;28;20203;-60
2023/08/14 11:42:56;;;;;;;3.20;2.40;;;35.90;44.40;;;;;;5040651;28;20536;-61
2023/08/14 11:45:24;;;;;;;2.65;2.42;;;35.90;45.20;;;;;;5041544;28;20196;-61
2023/08/14 11:47:52;;;;;;;2.50;2.30;;;36.10;45.70;;;;;;5039087;28;20203;-61
2023/08/14 11:50:19;;;;;;;5.38;2.17;;;36.20;45.60;;;;;;5040961;28;20207;-61
2023/08/14 11:52:47;;;;;;;3.88;2.58;;;36.20;46.10;;;;;;5040273;28;20663;-60
2023/08/14 11:55:14;;;;;;;2.58;2.30;;;36.30;46.30;;;;;;5041723;28;20203;-60
2023/08/14 11:57:43;;;;;;;4.47;2.40;;;36.40;45.80;;;;;;5039735;28;20219;-60
2023/08/14 12:00:13;;;;;;;2.92;2.63;;;36.50;45.70;;;;;;5040227;28;20213;-61
2023/08/14 12:02:47;;;;;;;4.40;2.53;;;36.50;45.60;;;;;;5041398;28;20203;-61
2023/08/14 12:05:14;;;;;;;3.42;3.13;;;36.50;45.90;;;;;;5040979;28;20234;-60
2023/08/14 12:07:42;;;;;;;5.57;3.00;;;36.50;46.00;;;;;;5045030;28;20198;-61
2023/08/14 12:10:09;;;;;;;4.38;3.15;;;36.40;45.70;;;;;;5044392;28;20202;-62
2023/08/14 12:12:38;;;;;;;8.30;3.03;;;36.30;45.90;;;;;;5045710;28;20213;-60
2023/08/14 12:15:21;;;;;;;3.00;2.70;;;36.20;46.00;;;;;;5043382;28;20199;-61
2023/08/14 12:17:50;;;;;;;5.70;2.70;;;36.00;46.20;;;;;;5043378;28;20666;-60
2023/08/14 12:20:17;;;;;;;6.07;2.60;;;35.90;46.60;;;;;;5040849;28;20326;-61
2023/08/14 12:22:45;;;;;;;4.20;2.67;;;35.80;46.90;;;;;;5043941;28;20194;-60
2023/08/14 12:25:28;;;;;;;8.23;2.88;;;35.80;47.10;;;;;;5044683;28;20217;-61
2023/08/14 12:27:55;;;;;;;3.92;2.42;;;35.90;47.20;;;;;;5041057;28;20226;-61
2023/08/14 12:30:22;;;;;;;3.03;2.83;;;36.00;47.50;;;;;;5041216;28;20202;-60
2023/08/14 12:32:49;;;;;;;3.13;2.45;;;36.10;47.40;;;;;;5046350;28;20203;-61
2023/08/14 12:35:17;;;;;;;3.10;2.80;;;36.20;46.80;;;;;;5040886;28;20203;-61
2023/08/14 12:37:44;;;;;;;3.45;3.10;;;36.20;46.40;;;;;;5041212;28;20223;-60
2023/08/14 12:40:11;;;;;;;3.65;2.53;;;36.20;46.70;;;;;;5045359;28;20199;-61
2023/08/14 12:42:38;;;;;;;3.60;3.08;;;36.20;46.90;;;;;;5040320;28;20205;-61
2023/08/14 12:45:06;;;;;;;3.70;2.88;;;36.10;47.10;;;;;;5043810;28;20201;-61
2023/08/14 12:47:33;;;;;;;3.28;2.97;;;36.10;47.50;;;;;;5044259;28;20209;-60
2023/08/14 12:50:01;;;;;;;3.08;2.78;;;36.00;46.30;;;;;;5041696;28;20507;-61
2023/08/14 12:52:28;;;;;;;2.75;2.55;;;35.90;46.60;;;;;;5038664;28;20241;-60